createdAt,value
2023-05-08T00:00:59.110Z,9.20
2023-05-08T00:03:44.641Z,8.00
2023-05-08T00:06:30.143Z,7.72
2023-05-08T00:09:15.569Z,8.25
2023-05-08T00:12:01.215Z,9.05
2023-05-08T00:14:46.760Z,7.75
2023-05-08T00:17:33.121Z,9.05
2023-05-08T00:20:19.042Z,8.68
2023-05-08T00:23:04.708Z,7.95
2023-05-08T00:25:50.024Z,8.82
2023-05-08T00:28:35.749Z,7.60
2023-05-08T00:31:21.108Z,8.10
2023-05-08T00:34:06.705Z,7.82
2023-05-08T00:36:52.727Z,8.45
2023-05-08T00:39:38.197Z,8.63
2023-05-08T00:42:23.630Z,7.97
2023-05-08T00:45:09.777Z,7.47
2023-05-08T00:47:55.437Z,7.35
2023-05-08T00:50:41.130Z,8.65
2023-05-08T00:53:27.326Z,7.90
2023-05-08T00:56:15.579Z,7.63
2023-05-08T00:59:01.587Z,7.95
2023-05-08T01:01:48.259Z,8.43
2023-05-08T01:04:36.790Z,7.55
2023-05-08T01:07:22.351Z,7.97
2023-05-08T01:10:08.395Z,8.73
2023-05-08T01:13:11.518Z,8.05
2023-05-08T01:16:17.647Z,8.15
2023-05-08T01:19:35.189Z,8.93
2023-05-08T01:22:20.997Z,8.73
2023-05-08T01:25:32.046Z,8.07
2023-05-08T01:28:31.226Z,8.25
2023-05-08T01:31:16.340Z,7.38
2023-05-08T01:34:23.564Z,8.45
2023-05-08T01:37:16.400Z,7.63
2023-05-08T01:40:31.192Z,7.75
2023-05-08T01:43:25.624Z,8.13
2023-05-08T01:46:16.920Z,7.38
2023-05-08T01:49:10.367Z,8.15
2023-05-08T01:52:18.772Z,8.43
2023-05-08T01:55:10.005Z,8.02
2023-05-08T01:57:57.891Z,7.18
2023-05-08T02:00:45.472Z,8.02
2023-05-08T02:03:36.279Z,8.90
2023-05-08T02:06:23.181Z,8.88
2023-05-08T02:09:10.892Z,7.32
2023-05-08T02:11:57.320Z,7.50
2023-05-08T02:14:43.650Z,6.90
2023-05-08T02:17:31.694Z,7.13
2023-05-08T02:20:18.633Z,7.13
2023-05-08T02:23:04.639Z,6.90
2023-05-08T02:25:51.563Z,7.25
2023-05-08T02:28:38.044Z,6.60
2023-05-08T02:31:24.524Z,7.22
2023-05-08T02:34:11.804Z,7.03
2023-05-08T02:36:59.730Z,6.88
2023-05-08T02:39:47.052Z,7.75
2023-05-08T02:42:33.259Z,7.05
2023-05-08T02:45:19.279Z,6.65
2023-05-08T02:48:11.029Z,7.97
2023-05-08T02:51:16.529Z,7.93
2023-05-08T02:54:18.023Z,6.13
2023-05-08T02:57:17.592Z,7.25
2023-05-08T03:00:20.733Z,7.72
2023-05-08T03:03:42.159Z,8.40
2023-05-08T03:06:33.946Z,7.50
2023-05-08T03:09:23.075Z,7.82
2023-05-08T03:12:14.310Z,7.65
2023-05-08T03:15:16.298Z,7.65
2023-05-08T03:18:10.572Z,7.70
2023-05-08T03:20:59.338Z,8.35
2023-05-08T03:23:46.792Z,8.38
2023-05-08T03:26:32.361Z,8.77
2023-05-08T03:29:19.696Z,10.40
2023-05-08T03:32:06.075Z,9.70
2023-05-08T03:34:52.398Z,10.02
2023-05-08T03:37:38.223Z,10.00
2023-05-08T03:40:23.490Z,10.00
2023-05-08T03:43:09.611Z,9.30
2023-05-08T03:45:56.617Z,9.43
2023-05-08T03:48:43.411Z,9.13
2023-05-08T03:51:29.295Z,10.10
2023-05-08T03:54:14.556Z,8.25
2023-05-08T03:57:00.157Z,9.07
2023-05-08T04:00:19.579Z,9.30
2023-05-08T04:03:17.257Z,8.95
2023-05-08T04:06:11.654Z,9.57
2023-05-08T04:09:31.927Z,8.60
2023-05-08T04:12:52.900Z,9.30
2023-05-08T04:16:20.117Z,9.20
2023-05-08T04:19:11.684Z,9.02
2023-05-08T04:22:05.146Z,8.45
2023-05-08T04:24:51.502Z,8.75
2023-05-08T04:27:37.924Z,8.15
2023-05-08T04:30:23.896Z,7.18
2023-05-08T04:33:09.905Z,8.23
2023-05-08T04:35:56.617Z,8.18
2023-05-08T04:38:42.291Z,7.47
2023-05-08T04:41:27.720Z,7.68
2023-05-08T04:44:13.505Z,6.63
2023-05-08T04:46:59.095Z,8.65
2023-05-08T04:49:44.960Z,7.78
2023-05-08T04:52:30.156Z,9.60
2023-05-08T04:55:15.933Z,7.45
2023-05-08T04:58:01.643Z,6.80
2023-05-08T05:00:47.083Z,6.65
2023-05-08T05:03:32.717Z,6.82
2023-05-08T05:06:18.033Z,6.95
2023-05-08T05:09:04.824Z,6.43
2023-05-08T05:11:50.329Z,5.63
2023-05-08T05:14:36.216Z,4.80
2023-05-08T05:17:22.009Z,5.40
2023-05-08T05:20:08.934Z,4.97
2023-05-08T05:22:54.432Z,4.95
2023-05-08T05:25:39.842Z,5.70
2023-05-08T05:28:26.184Z,5.20
2023-05-08T05:31:11.599Z,5.22
2023-05-08T05:33:57.397Z,5.85
2023-05-08T05:36:44.162Z,6.43
2023-05-08T05:39:45.311Z,7.05
2023-05-08T05:42:42.457Z,7.28
2023-05-08T05:46:20.167Z,6.85
2023-05-08T05:49:13.522Z,8.23
2023-05-08T05:51:59.918Z,7.03
2023-05-08T05:55:01.205Z,6.80
2023-05-08T05:57:54.738Z,7.32
2023-05-08T06:03:53.795Z,6.85
2023-05-08T06:07:04.212Z,6.85
2023-05-08T06:10:08.287Z,7.22
2023-05-08T06:13:07.299Z,6.13
2023-05-08T06:15:58.507Z,5.97
2023-05-08T06:18:43.680Z,6.28
2023-05-08T06:21:29.227Z,6.35
2023-05-08T06:24:14.655Z,7.18
2023-05-08T06:27:00.279Z,7.40
2023-05-08T06:29:59.256Z,8.10
2023-05-08T06:32:45.543Z,6.28
2023-05-08T06:35:32.510Z,5.88
2023-05-08T06:38:19.049Z,5.00
2023-05-08T06:41:15.165Z,5.20
2023-05-08T06:44:12.673Z,4.82
2023-05-08T06:47:24.318Z,4.20
2023-05-08T06:50:10.976Z,4.15
2023-05-08T06:53:13.874Z,3.90
2023-05-08T06:56:05.942Z,5.20
2023-05-08T06:59:07.185Z,4.20
2023-05-08T07:02:10.888Z,4.70
2023-05-08T07:05:01.626Z,5.28
2023-05-08T07:07:47.409Z,4.50
2023-05-08T07:10:32.928Z,4.93
2023-05-08T07:13:27.371Z,4.50
2023-05-08T07:16:14.201Z,4.72
2023-05-08T07:18:59.692Z,5.97
2023-05-08T07:21:46.407Z,4.50
2023-05-08T07:24:32.382Z,4.55
2023-05-08T07:27:18.055Z,5.03
2023-05-08T07:30:04.442Z,5.53
2023-05-08T07:32:50.024Z,5.75
2023-05-08T07:35:35.537Z,4.68
2023-05-08T07:38:20.982Z,5.10
2023-05-08T07:41:07.406Z,4.88
2023-05-08T07:43:53.378Z,4.72
2023-05-08T07:46:39.197Z,3.95
2023-05-08T07:49:24.805Z,4.63
2023-05-08T07:52:10.753Z,4.18
2023-05-08T07:54:56.344Z,4.80
2023-05-08T07:57:43.388Z,4.15
2023-05-08T08:00:29.654Z,4.63
2023-05-08T08:03:15.401Z,3.90
2023-05-08T08:06:00.761Z,4.45
2023-05-08T08:08:46.422Z,4.97
2023-05-08T08:11:31.969Z,5.00
2023-05-08T08:14:17.176Z,4.43
2023-05-08T08:17:02.906Z,4.80
2023-05-08T08:19:48.734Z,5.45
2023-05-08T08:22:33.920Z,5.40
2023-05-08T08:25:19.505Z,4.72
2023-05-08T08:28:05.107Z,4.90
2023-05-08T08:30:51.173Z,4.40
2023-05-08T08:33:36.806Z,4.55
2023-05-08T08:36:22.290Z,5.38
2023-05-08T08:39:10.425Z,5.20
2023-05-08T08:41:56.853Z,5.43
2023-05-08T08:44:42.813Z,4.70
2023-05-08T08:47:29.740Z,5.18
2023-05-08T08:50:16.158Z,6.18
2023-05-08T08:53:12.445Z,5.32
2023-05-08T08:56:00.928Z,4.78
2023-05-08T08:58:56.993Z,4.93
2023-05-08T09:01:44.869Z,5.07
2023-05-08T09:04:31.839Z,3.78
2023-05-08T09:07:18.522Z,4.07
2023-05-08T09:10:07.431Z,3.70
2023-05-08T09:12:53.330Z,3.70
2023-05-08T09:15:39.071Z,3.45
2023-05-08T09:18:24.933Z,2.78
2023-05-08T09:21:10.338Z,3.42
2023-05-08T09:24:01.184Z,2.13
2023-05-08T09:26:48.127Z,2.75
2023-05-08T09:29:33.455Z,2.60
2023-05-08T09:32:19.074Z,2.13
2023-05-08T09:35:05.948Z,2.78
2023-05-08T09:37:51.689Z,2.65
2023-05-08T09:40:37.109Z,2.33
2023-05-08T09:43:22.566Z,2.47
2023-05-08T09:46:24.436Z,2.20
2023-05-08T09:49:18.194Z,2.10
2023-05-08T09:52:04.210Z,2.42
2023-05-08T09:54:59.847Z,2.28
2023-05-08T09:57:57.250Z,2.10
2023-05-08T10:00:43.483Z,2.17
2023-05-08T10:03:49.571Z,1.98
2023-05-08T10:06:36.585Z,1.88
2023-05-08T10:09:22.210Z,1.88
2023-05-08T10:12:09.128Z,1.63
2023-05-08T10:14:55.256Z,2.42
2023-05-08T10:18:08.998Z,2.42
2023-05-08T10:20:57.872Z,2.30
2023-05-08T10:23:45.672Z,1.95
2023-05-08T10:26:32.028Z,1.90
2023-05-08T10:29:21.407Z,1.70
2023-05-08T10:32:10.558Z,2.70
2023-05-08T10:35:00.593Z,2.47
2023-05-08T10:37:47.844Z,2.40
2023-05-08T10:40:33.540Z,1.88
2023-05-08T10:43:19.879Z,1.98
2023-05-08T10:46:28.751Z,2.17
2023-05-08T10:49:28.739Z,2.65
2023-05-08T10:52:17.890Z,1.80
2023-05-08T10:55:17.151Z,1.60
2023-05-08T10:58:17.467Z,2.10
2023-05-08T11:01:09.220Z,1.90
2023-05-08T11:03:58.400Z,2.78
2023-05-08T11:06:46.663Z,1.80
2023-05-08T11:09:41.436Z,2.22
2023-05-08T11:12:29.543Z,2.00
2023-05-08T11:15:15.320Z,1.50
2023-05-08T11:18:09.076Z,1.45
2023-05-08T11:20:57.404Z,1.77
2023-05-08T11:23:42.676Z,2.75
2023-05-08T11:26:40.931Z,1.60
2023-05-08T11:29:26.364Z,1.50
2023-05-08T11:32:12.077Z,1.98
2023-05-08T11:34:58.232Z,1.90
2023-05-08T11:38:19.286Z,1.50
2023-05-08T11:41:09.995Z,2.13
2023-05-08T11:44:14.938Z,2.00
2023-05-08T11:47:04.551Z,2.53
2023-05-08T11:49:50.596Z,2.75
2023-05-08T11:52:38.451Z,1.70
2023-05-08T11:55:23.904Z,1.60
2023-05-08T11:58:15.030Z,2.22
2023-05-08T12:01:01.794Z,2.10
2023-05-08T12:03:48.236Z,1.88
2023-05-08T12:06:35.833Z,1.75
2023-05-08T12:09:23.912Z,1.90
2023-05-08T12:12:09.783Z,1.30
2023-05-08T12:14:56.026Z,1.60
2023-05-08T12:17:43.787Z,1.60
2023-05-08T12:20:31.957Z,1.50
2023-05-08T12:23:22.763Z,1.60
2023-05-08T12:26:41.794Z,1.52
2023-05-08T12:29:31.925Z,1.20
2023-05-08T12:32:21.004Z,1.20
2023-05-08T12:35:11.344Z,1.48
2023-05-08T12:38:05.766Z,1.10
2023-05-08T12:40:55.600Z,1.60
2023-05-08T12:43:40.821Z,1.40
2023-05-08T12:46:27.392Z,1.33
2023-05-08T12:49:12.978Z,1.20
2023-05-08T12:52:09.408Z,0.70
2023-05-08T12:54:55.277Z,1.30
2023-05-08T12:57:40.979Z,0.98
2023-05-08T13:00:33.884Z,1.00
2023-05-08T13:03:28.773Z,1.20
2023-05-08T13:06:23.932Z,1.17
2023-05-08T13:09:09.585Z,1.27
2023-05-08T13:11:54.967Z,1.50
2023-05-08T13:14:40.682Z,1.27
2023-05-08T13:17:26.811Z,1.40
2023-05-08T13:20:12.320Z,1.33
2023-05-08T13:22:57.935Z,1.10
2023-05-08T13:25:43.928Z,0.90
2023-05-08T13:28:29.220Z,0.90
2023-05-08T13:31:14.773Z,1.00
2023-05-08T13:34:00.639Z,0.50
2023-05-08T13:36:46.485Z,0.90
2023-05-08T13:39:32.896Z,1.30
2023-05-08T13:42:18.476Z,1.25
2023-05-08T13:45:10.674Z,1.25
2023-05-08T13:47:56.605Z,1.40
2023-05-08T13:50:42.389Z,1.30
2023-05-08T13:53:28.390Z,1.13
2023-05-08T13:56:15.879Z,1.73
2023-05-08T13:59:01.406Z,1.38
2023-05-08T14:01:46.943Z,1.48
2023-05-08T14:04:32.946Z,1.15
2023-05-08T14:07:18.975Z,0.90
2023-05-08T14:10:04.777Z,1.10
2023-05-08T14:12:50.408Z,1.20
2023-05-08T14:15:37.818Z,1.00
2023-05-08T14:18:24.595Z,1.55
2023-05-08T14:21:10.243Z,1.05
2023-05-08T14:23:55.874Z,1.08
2023-05-08T14:26:42.432Z,0.95
2023-05-08T14:29:27.906Z,1.00
2023-05-08T14:32:13.623Z,1.00
2023-05-08T14:34:59.437Z,1.17
2023-05-08T14:37:45.278Z,1.33
2023-05-08T14:40:31.308Z,0.95
2023-05-08T14:43:17.793Z,1.00
2023-05-08T14:46:03.603Z,1.10
2023-05-08T14:48:49.479Z,1.00
2023-05-08T14:51:35.088Z,0.95
2023-05-08T14:54:20.883Z,0.95
2023-05-08T14:57:06.507Z,1.13
2023-05-08T15:02:57.764Z,1.40
2023-05-08T15:05:43.756Z,1.30
2023-05-08T15:08:29.428Z,2.13
2023-05-08T15:11:14.933Z,1.20
2023-05-08T15:14:01.793Z,1.88
2023-05-08T15:16:47.472Z,2.13
2023-05-08T15:19:33.166Z,1.50
2023-05-08T15:22:18.789Z,1.48
2023-05-08T15:25:05.625Z,1.40
2023-05-08T15:27:52.840Z,1.50
2023-05-08T15:30:38.950Z,1.50
2023-05-08T15:33:24.773Z,1.63
2023-05-08T15:36:14.075Z,1.90
2023-05-08T15:39:00.122Z,1.90
2023-05-08T15:41:45.515Z,1.73
2023-05-08T15:44:52.609Z,2.25
2023-05-08T15:47:38.624Z,1.90
2023-05-08T15:50:24.436Z,3.80
2023-05-08T15:53:09.944Z,1.63
2023-05-08T15:55:57.283Z,2.20
2023-05-08T15:58:42.942Z,2.17
2023-05-08T16:01:28.881Z,2.47
2023-05-08T16:04:16.872Z,1.92
2023-05-08T16:07:02.787Z,2.10
2023-05-08T16:09:48.087Z,2.67
2023-05-08T16:12:37.563Z,2.00
2023-05-08T16:15:23.210Z,2.55
2023-05-08T16:18:08.696Z,2.70
2023-05-08T16:20:54.468Z,2.92
2023-05-08T16:23:39.735Z,2.50
2023-05-08T16:26:26.376Z,2.63
2023-05-08T16:29:11.938Z,2.30
2023-05-08T16:31:57.642Z,2.38
2023-05-08T16:34:43.716Z,3.30
2023-05-08T16:38:14.816Z,2.90
2023-05-08T16:41:36.843Z,3.08
2023-05-08T16:44:22.550Z,3.30
2023-05-08T16:47:08.216Z,3.80
2023-05-08T16:49:54.366Z,3.60
2023-05-08T16:52:44.342Z,3.17
2023-05-08T16:55:47.144Z,3.50
2023-05-08T16:58:34.889Z,3.20
2023-05-08T17:01:32.350Z,2.60
2023-05-08T17:04:18.327Z,2.70
2023-05-08T17:07:06.049Z,2.55
2023-05-08T17:10:19.035Z,2.58
2023-05-08T17:13:04.808Z,2.08
2023-05-08T17:15:50.319Z,2.13
2023-05-08T17:18:36.055Z,2.40
2023-05-08T17:21:22.560Z,2.20
2023-05-08T17:24:23.465Z,2.00
2023-05-08T17:27:17.602Z,2.13
2023-05-08T17:30:04.166Z,1.80
2023-05-08T17:32:51.804Z,1.75
2023-05-08T17:35:41.391Z,1.60
2023-05-08T17:38:27.290Z,1.52
2023-05-08T17:41:23.934Z,1.75
2023-05-08T17:44:13.363Z,1.88
2023-05-08T17:46:59.045Z,1.25
2023-05-08T17:49:44.598Z,6.97
2023-05-08T17:52:30.297Z,6.25
2023-05-08T17:55:15.567Z,2.92
2023-05-08T17:58:01.358Z,2.30
2023-05-08T18:00:46.964Z,2.47
2023-05-08T18:03:32.493Z,1.52
2023-05-08T18:06:18.548Z,3.45
2023-05-08T18:09:04.149Z,1.98
2023-05-08T18:11:49.520Z,3.90
2023-05-08T18:14:35.098Z,2.00
2023-05-08T18:17:22.447Z,2.00
2023-05-08T18:20:09.370Z,2.30
2023-05-08T18:22:54.912Z,1.98
2023-05-08T18:25:40.556Z,1.42
2023-05-08T18:28:26.794Z,1.42
2023-05-08T18:31:13.463Z,1.50
2023-05-08T18:33:59.415Z,1.70
2023-05-08T18:36:44.838Z,1.75
2023-05-08T18:39:30.589Z,1.83
2023-05-08T18:42:16.188Z,2.15
2023-05-08T18:45:05.654Z,2.28
2023-05-08T18:47:54.117Z,1.98
2023-05-08T18:50:39.645Z,2.35
2023-05-08T18:53:25.230Z,1.80
2023-05-08T18:56:12.439Z,1.88
2023-05-08T18:59:00.099Z,1.73
2023-05-08T19:01:45.418Z,2.03
2023-05-08T19:04:31.125Z,1.48
2023-05-08T19:07:16.821Z,1.48
2023-05-08T19:10:02.169Z,1.45
2023-05-08T19:12:47.954Z,1.58
2023-05-08T19:15:33.518Z,1.70
2023-05-08T19:18:20.234Z,1.52
2023-05-08T19:21:06.576Z,1.27
2023-05-08T19:23:52.239Z,1.27
2023-05-08T19:26:43.636Z,1.25
2023-05-08T19:29:29.536Z,1.35
2023-05-08T19:32:15.340Z,1.50
2023-05-08T19:35:02.593Z,1.38
2023-05-08T19:37:48.368Z,1.25
2023-05-08T19:40:41.327Z,1.40
2023-05-08T19:46:23.045Z,1.15
2023-05-08T19:49:08.781Z,1.30
2023-05-08T19:51:54.345Z,1.50
2023-05-08T19:54:40.344Z,1.30
2023-05-08T19:57:25.516Z,2.00
2023-05-08T20:00:11.895Z,1.55
2023-05-08T20:02:57.895Z,1.70
2023-05-08T20:05:43.839Z,1.65
2023-05-08T20:08:30.072Z,1.98
2023-05-08T20:11:15.800Z,2.15
2023-05-08T20:14:01.866Z,2.10
2023-05-08T20:16:47.472Z,2.60
2023-05-08T20:19:33.226Z,2.50
2023-05-08T20:22:18.844Z,2.78
2023-05-08T20:25:05.150Z,2.65
2023-05-08T20:27:52.091Z,3.10
2023-05-08T20:30:37.836Z,3.13
2023-05-08T20:33:23.270Z,3.55
2023-05-08T20:36:09.130Z,4.03
2023-05-08T20:38:54.588Z,3.55
2023-05-08T20:41:40.211Z,4.65
2023-05-08T20:44:25.777Z,4.07
2023-05-08T20:47:11.506Z,4.72
2023-05-08T20:49:57.121Z,5.07
2023-05-08T20:52:42.817Z,5.43
2023-05-08T20:55:28.354Z,5.85
2023-05-08T20:58:13.745Z,6.32
2023-05-08T21:00:59.218Z,5.22
2023-05-08T21:03:44.769Z,5.85
2023-05-08T21:06:30.880Z,5.80
2023-05-08T21:09:16.795Z,5.30
2023-05-08T21:12:02.774Z,5.88
2023-05-08T21:14:48.712Z,6.50
2023-05-08T21:17:34.703Z,6.50
2023-05-08T21:20:21.414Z,7.75
2023-05-08T21:23:07.392Z,7.38
2023-05-08T21:25:53.344Z,8.23
2023-05-08T21:28:39.108Z,8.50
2023-05-08T21:31:24.810Z,9.60
2023-05-08T21:34:10.675Z,10.10
2023-05-08T21:36:56.129Z,8.65
2023-05-08T21:39:41.920Z,10.00
2023-05-08T21:42:27.066Z,10.10
2023-05-08T21:45:12.887Z,10.27
2023-05-08T21:47:59.774Z,10.07
2023-05-08T21:50:45.266Z,10.23
2023-05-08T21:53:30.721Z,9.82
2023-05-08T21:56:16.582Z,9.93
2023-05-08T21:59:02.159Z,9.15
2023-05-08T22:01:47.846Z,9.27
2023-05-08T22:04:33.280Z,9.40
2023-05-08T22:07:21.070Z,10.48
2023-05-08T22:10:09.178Z,9.20
2023-05-08T22:12:54.502Z,10.30
2023-05-08T22:15:40.166Z,9.10
2023-05-08T22:18:25.934Z,9.05
2023-05-08T22:21:11.507Z,10.23
2023-05-08T22:23:57.260Z,9.13
2023-05-08T22:26:42.752Z,9.10
2023-05-08T22:29:28.236Z,11.07
2023-05-08T22:32:14.275Z,7.60
2023-05-08T22:35:00.026Z,7.85
2023-05-08T22:37:45.680Z,8.05
2023-05-08T22:40:31.067Z,6.80
2023-05-08T22:43:16.565Z,7.50
2023-05-08T22:46:02.857Z,6.47
2023-05-08T22:48:48.386Z,5.82
2023-05-08T22:51:33.588Z,5.25
2023-05-08T22:54:19.166Z,5.10
2023-05-08T22:57:04.801Z,4.28
2023-05-08T22:59:50.427Z,4.90
2023-05-08T23:02:35.954Z,3.88
2023-05-08T23:05:21.956Z,3.92
2023-05-08T23:08:07.567Z,3.40
2023-05-08T23:10:52.980Z,3.70
2023-05-08T23:13:38.219Z,3.00
2023-05-08T23:16:24.962Z,2.88
2023-05-08T23:19:10.593Z,2.75
2023-05-08T23:21:55.788Z,2.53
2023-05-08T23:24:41.284Z,2.65
2023-05-08T23:27:27.003Z,1.98
2023-05-08T23:30:16.922Z,1.92
2023-05-08T23:33:02.486Z,1.80
2023-05-08T23:35:48.200Z,1.40
2023-05-08T23:38:33.608Z,1.20
2023-05-08T23:41:19.086Z,0.95
2023-05-08T23:44:05.063Z,1.35
2023-05-08T23:46:50.483Z,1.00
2023-05-08T23:49:36.019Z,1.20
2023-05-08T23:52:21.273Z,0.63
2023-05-08T23:55:07.615Z,1.20
2023-05-08T23:57:52.980Z,1.15
